SBARSBSV

Guest
Details From SBAR - SANTA MARIA
To SBSV - Salvador Bahia Deputado Luis Eduardo M
Flight Number -
Tags generated
Created
Modified
Stats Distance 137 nm / 255 km
Max Altitude 14,800 ft / 4,511 m
Waypoints 4
Social Downloads 7
Likes 0
Share VATSIM

Download

Looking for another format? Having issues loading an existing format? Contact us
Advertisement - Login to hide

Notes

Basic altitude profile: - Ascent Rate: 2500ft/min - Ascent Speed: 250kts - Cruise Altitude: 35000ft - Cruise Speed: 420kts - Descent Rate: 1500ft/min - Descent Speed: 250kts Options: - Use NATs: yes - Use PACOTS: yes - Use low airways: yes - Use high airways: no

Route

SBAR CONDE G677 SVD SBSV

ID Type Via Altitude Latitude Longitude Leg Dist Tot Dist Heading (true) Name
O SBAR APT - 0 ft / 0 m -10.98400˚ -37.07033˚ - 0 nm - SANTA MARIA
CONDE FIX - 14,800 ft / 4,511 m -11.94150˚ -37.69200˚ 68 nm 68 nm 212° / 213° -
SVD VOR G677 (AWY-LO) 3,500 ft / 1,067 m -12.90642˚ -38.32136˚ 68 nm 136 nm 212° / 213° SALVADOR VOR-DME
O SBSV APT - 0 ft / 0 m -12.91099˚ -38.33104˚ 0 nm 137 nm 244° / 244° Salvador Bahia Deputado Luis Eduardo M

Altitude Profile

Advertisement - Login to hide

SBAR

Details ICAO SBAR (AJU)
Name SANTA MARIA
Region Brazil
Timezone America/Maceio (UTC-3.0)
Stats Elevation 23 ft / 7 m (AMSL)
Location -10.984000° -37.070333°
Runways 1
Magnetic Variation 23.050° W

METAR

SBAR 161400Z 10013KT 9999 SCT018 29/22 Q1014

Decode

TAF

TAF SBAR 161000Z 1612/1624 08007KT 9999 SCT017 TX29/1615Z TN25/1623Z BECMG 1613/1614 11012KT BECMG 1621/1622 08008KT RMK PEI

Decode

Departure Runways

ID Width Length Bearing (true) Bearing (mag) Surface Threshold Offset Overrun Length
11 148 ft / 45 m 7,228 ft / 2,203 m 91.93° 114.98° Asphalt 0 ft / 0 m 200 ft / 61 m
29 148 ft / 45 m 7,228 ft / 2,203 m 271.92° 294.97° Asphalt 0 ft / 0 m 200 ft / 61 m

SBSV

Details ICAO SBSV (SSA)
Name Salvador Bahia Deputado Luis Eduardo M
Region Brazil
Timezone America/Bahia (UTC-3.0)
Stats Elevation 64 ft / 20 m (AMSL)
Location -12.910994° -38.331043°
Runways 2
Magnetic Variation 23.437° W

METAR

SBSV 161500Z 08008KT 9999 FEW025 SCT080 28/21 Q1015

Decode

TAF

TAF SBSV 161000Z 1612/1712 09009KT 8000 SCT017 TX29/1615Z TN24/1707Z RMK PEI

Decode

Destination Runways

ID Width Length Bearing (true) Bearing (mag) Surface Threshold Offset Overrun Length
10 148 ft / 45 m 9,845 ft / 3,001 m 78.32° 101.76° Asphalt 0 ft / 0 m 205 ft / 62 m
17 148 ft / 45 m 5,014 ft / 1,528 m 144.04° 167.48° Asphalt 0 ft / 0 m 0 ft / 0 m
28 148 ft / 45 m 9,845 ft / 3,001 m 258.31° 281.75° Asphalt 0 ft / 0 m 205 ft / 62 m
35 148 ft / 45 m 5,014 ft / 1,528 m 324.04° 347.48° Asphalt 0 ft / 0 m 0 ft / 0 m

Approach Navaids

Runway Type Ident Frequency Range Bearing (true) Bearing (mag) Slope Elevation
10 Localiser ISV 109.30 MHz 18 nm / 33 km 78.41° 101.84° - 29 ft / 9 m (AMSL)
10 Glidescope ISV 109.30 MHz 10 nm / 19 km 78.32° 101.75° 2.88° 29 ft / 9 m (AMSL)

Popular Alternatives